createdAt,value
2018-09-15T00:00:27.888Z,1019.37
2018-09-15T00:01:37.731Z,1019.36
2018-09-15T00:02:47.836Z,1019.37
2018-09-15T00:03:57.678Z,1019.32
2018-09-15T00:05:07.576Z,1019.36
2018-09-15T00:06:17.427Z,1019.3
2018-09-15T00:07:27.274Z,1019.31
2018-09-15T00:08:36.841Z,1019.28
2018-09-15T00:09:46.449Z,1019.3
2018-09-15T00:10:56.032Z,1019.27
2018-09-15T00:12:05.604Z,1019.29
2018-09-15T00:13:15.180Z,1019.29
2018-09-15T00:14:31.042Z,1019.28
2018-09-15T00:15:40.616Z,1019.32
2018-09-15T00:16:50.513Z,1019.27
2018-09-15T00:18:00.624Z,1019.26
2018-09-15T00:19:09.926Z,1019.26
2018-09-15T00:20:19.774Z,1019.24
2018-09-15T00:21:29.621Z,1019.28
2018-09-15T00:22:39.197Z,1019.28
2018-09-15T00:23:48.774Z,1019.28
2018-09-15T00:24:58.354Z,1019.31
2018-09-15T00:26:07.688Z,1019.29
2018-09-15T00:27:17.260Z,1019.33
2018-09-15T00:28:27.140Z,1019.29
2018-09-15T00:29:36.717Z,1019.3
2018-09-15T00:30:46.298Z,1019.3
2018-09-15T00:31:55.876Z,1019.31
2018-09-15T00:33:05.455Z,1019.3
2018-09-15T00:34:15.354Z,1019.32
2018-09-15T00:35:25.247Z,1019.3
2018-09-15T00:36:35.108Z,1019.28
2018-09-15T00:37:44.953Z,1019.31
2018-09-15T00:38:54.575Z,1019.29
2018-09-15T00:40:05.092Z,1019.33
2018-09-15T00:41:14.996Z,1019.28
2018-09-15T00:42:24.895Z,1019.28
2018-09-15T00:43:34.502Z,1019.28
2018-09-15T00:44:44.168Z,1019.35
2018-09-15T00:45:54.105Z,1019.32
2018-09-15T00:47:03.954Z,1019.32
2018-09-15T00:48:13.857Z,1019.34
2018-09-15T00:49:23.427Z,1019.33
2018-09-15T00:50:33.272Z,1019.34
2018-09-15T00:51:43.123Z,1019.33
2018-09-15T00:52:52.980Z,1019.36
2018-09-15T00:54:02.549Z,1019.38
2018-09-15T00:55:12.127Z,1019.37
2018-09-15T00:56:21.428Z,1019.35
2018-09-15T00:57:31.033Z,1019.35
2018-09-15T00:58:41.176Z,1019.34
2018-09-15T00:59:51.348Z,1019.38
2018-09-15T01:01:00.913Z,1019.38
2018-09-15T01:02:10.509Z,1019.38
2018-09-15T01:03:19.812Z,1019.43
2018-09-15T01:04:29.939Z,1019.4
2018-09-15T01:05:39.788Z,1019.36
2018-09-15T01:06:49.911Z,1019.34
2018-09-15T01:08:00.019Z,1019.32
2018-09-15T01:09:09.595Z,1019.32
2018-09-15T01:10:19.448Z,1019.33
2018-09-15T01:11:29.050Z,1019.29
2018-09-15T01:12:38.633Z,1019.22
2018-09-15T01:13:48.238Z,1019.3
2018-09-15T01:14:58.403Z,1019.28
2018-09-15T01:16:08.516Z,1019.26
2018-09-15T01:17:18.364Z,1019.32
2018-09-15T01:18:27.935Z,1019.33
2018-09-15T01:19:37.506Z,1019.37
2018-09-15T01:20:47.702Z,1019.36
2018-09-15T01:21:57.753Z,1019.34
2018-09-15T01:23:07.615Z,1019.35
2018-09-15T01:24:17.725Z,1019.37
2018-09-15T01:25:27.029Z,1019.3
2018-09-15T01:26:36.870Z,1019.3
2018-09-15T01:27:46.467Z,1019.28
2018-09-15T01:28:56.040Z,1019.3
2018-09-15T01:30:05.610Z,1019.25
2018-09-15T01:31:15.747Z,1019.25
2018-09-15T01:32:25.321Z,1019.23
2018-09-15T01:33:34.896Z,1019.2
2018-09-15T01:34:44.465Z,1019.22
2018-09-15T01:35:54.321Z,1019.2
2018-09-15T01:37:04.156Z,1019.22
2018-09-15T01:38:13.457Z,1019.2
2018-09-15T01:39:23.302Z,1019.17
2018-09-15T01:40:32.599Z,1019.22
2018-09-15T01:41:42.439Z,1019.25
2018-09-15T01:42:51.742Z,1019.19
2018-09-15T01:44:01.322Z,1019.21
2018-09-15T01:45:11.441Z,1019.24
2018-09-15T01:46:21.564Z,1019.24
2018-09-15T01:47:31.397Z,1019.28
2018-09-15T01:48:41.244Z,1019.29
2018-09-15T01:49:50.865Z,1019.29
2018-09-15T01:51:00.716Z,1019.29
2018-09-15T01:52:10.555Z,1019.26
2018-09-15T01:53:20.660Z,1019.26
2018-09-15T01:54:30.507Z,1019.27
2018-09-15T01:55:40.431Z,1019.25
2018-09-15T01:56:50.349Z,1019.26
2018-09-15T01:58:00.197Z,1019.22
2018-09-15T01:59:09.512Z,1019.22
2018-09-15T02:00:18.810Z,1019.29
2018-09-15T02:01:28.115Z,1019.28
2018-09-15T02:02:37.963Z,1019.22
2018-09-15T02:03:47.816Z,1019.25
2018-09-15T02:04:57.932Z,1019.29
2018-09-15T02:06:07.505Z,1019.35
2018-09-15T02:07:17.396Z,1019.33
2018-09-15T02:08:27.250Z,1019.33
2018-09-15T02:09:36.825Z,1019.3
2018-09-15T02:10:46.663Z,1019.32
2018-09-15T02:11:56.500Z,1019.22
2018-09-15T02:13:05.804Z,1019.31
2018-09-15T02:14:15.372Z,1019.21
2018-09-15T02:15:25.216Z,1019.17
2018-09-15T02:16:35.337Z,1019.19
2018-09-15T02:17:45.485Z,1019.25
2018-09-15T02:18:55.591Z,1019.26
2018-09-15T02:20:04.888Z,1019.3
2018-09-15T02:21:14.459Z,1019.26
2018-09-15T02:22:24.056Z,1019.32
2018-09-15T02:23:34.474Z,1019.34
2018-09-15T02:24:44.101Z,1019.37
2018-09-15T02:25:53.938Z,1019.37
2018-09-15T02:27:03.781Z,1019.36
2018-09-15T02:28:13.891Z,1019.34
2018-09-15T02:29:23.744Z,1019.35
2018-09-15T02:30:33.857Z,1019.34
2018-09-15T02:31:43.969Z,1019.33
2018-09-15T02:32:53.813Z,1019.36
2018-09-15T02:34:03.663Z,1019.31
2018-09-15T02:35:13.553Z,1019.35
2018-09-15T02:36:23.446Z,1019.32
2018-09-15T02:37:33.563Z,1019.38
2018-09-15T02:38:43.678Z,1019.33
2018-09-15T02:39:53.520Z,1019.29
2018-09-15T02:41:03.632Z,1019.25
2018-09-15T02:42:14.007Z,1019.29
2018-09-15T02:43:23.845Z,1019.3
2018-09-15T02:44:33.149Z,1019.31
2018-09-15T02:45:43.025Z,1019.33
2018-09-15T02:46:52.646Z,1019.31
2018-09-15T02:48:02.490Z,1019.31
2018-09-15T02:49:12.353Z,1019.31
2018-09-15T02:50:22.226Z,1019.26
2018-09-15T02:51:32.065Z,1019.3
2018-09-15T02:52:41.634Z,1019.26
2018-09-15T02:53:51.746Z,1019.27
2018-09-15T02:55:01.879Z,1019.21
2018-09-15T02:56:11.176Z,1019.25
2018-09-15T02:57:20.748Z,1019.21
2018-09-15T02:58:30.859Z,1019.24
2018-09-15T02:59:40.705Z,1019.24
2018-09-15T03:00:49.734Z,1019.25
2018-09-15T03:01:58.765Z,1019.22
2018-09-15T03:03:08.344Z,1019.24
2018-09-15T03:04:18.473Z,1019.18
2018-09-15T03:05:28.047Z,1019.24
2018-09-15T03:06:37.899Z,1019.23
2018-09-15T03:07:46.931Z,1019.24
2018-09-15T03:08:56.767Z,1019.22
2018-09-15T03:10:06.881Z,1019.2
2018-09-15T03:11:16.453Z,1019.23
2018-09-15T03:12:26.060Z,1019.23
2018-09-15T03:13:36.137Z,1019.25
2018-09-15T03:14:45.726Z,1019.24
2018-09-15T03:15:55.580Z,1019.19
2018-09-15T03:17:05.151Z,1019.22
2018-09-15T03:18:15.265Z,1019.26
2018-09-15T03:19:25.374Z,1019.25
2018-09-15T03:20:34.953Z,1019.24
2018-09-15T03:21:44.537Z,1019.22
2018-09-15T03:22:54.645Z,1019.24
2018-09-15T03:24:04.499Z,1019.25
2018-09-15T03:25:14.350Z,1019.24
2018-09-15T03:26:24.201Z,1019.22
2018-09-15T03:27:33.794Z,1019.2
2018-09-15T03:28:43.642Z,1019.2
2018-09-15T03:29:53.755Z,1019.2
2018-09-15T03:31:03.867Z,1019.22
2018-09-15T03:32:14.001Z,1019.22
2018-09-15T03:33:24.157Z,1019.18
2018-09-15T03:34:33.238Z,1019.17
2018-09-15T03:35:43.085Z,1019.18
2018-09-15T03:36:52.394Z,1019.15
2018-09-15T03:38:02.235Z,1019.16
2018-09-15T03:39:12.073Z,1019.2
2018-09-15T03:40:21.910Z,1019.16
2018-09-15T03:41:31.816Z,1019.17
2018-09-15T03:42:42.244Z,1019.11
2018-09-15T03:43:52.086Z,1019.16
2018-09-15T03:45:01.670Z,1019.2
2018-09-15T03:46:11.516Z,1019.18
2018-09-15T03:47:21.365Z,1019.17
2018-09-15T03:48:31.472Z,1019.21
2018-09-15T03:49:41.091Z,1019.25
2018-09-15T03:50:50.935Z,1019.24
2018-09-15T03:52:01.047Z,1019.24
2018-09-15T03:53:10.926Z,1019.26
2018-09-15T03:54:21.058Z,1019.31
2018-09-15T03:55:30.390Z,1019.3
2018-09-15T03:56:40.499Z,1019.29
2018-09-15T03:57:50.607Z,1019.27
2018-09-15T03:59:00.452Z,1019.28
2018-09-15T04:00:10.297Z,1019.3
2018-09-15T04:01:20.137Z,1019.27
2018-09-15T04:02:29.721Z,1019.32
2018-09-15T04:03:39.843Z,1019.33
2018-09-15T04:04:49.413Z,1019.31
2018-09-15T04:05:58.986Z,1019.41
2018-09-15T04:07:08.832Z,1019.37
2018-09-15T04:08:18.674Z,1019.41
2018-09-15T04:09:28.244Z,1019.38
2018-09-15T04:10:38.099Z,1019.38
2018-09-15T04:11:47.707Z,1019.42
2018-09-15T04:12:57.869Z,1019.36
2018-09-15T04:14:07.715Z,1019.39
2018-09-15T04:15:17.860Z,1019.42
2018-09-15T04:16:27.172Z,1019.44
2018-09-15T04:17:37.310Z,1019.45
2018-09-15T04:18:47.470Z,1019.47
2018-09-15T04:19:57.045Z,1019.45
2018-09-15T04:21:06.615Z,1019.51
2018-09-15T04:22:16.253Z,1019.45
2018-09-15T04:23:26.105Z,1019.46
2018-09-15T04:24:35.679Z,1019.58
2018-09-15T04:25:45.809Z,1019.6
2018-09-15T04:26:55.930Z,1019.6
2018-09-15T04:28:06.077Z,1019.63
2018-09-15T04:29:16.241Z,1019.62
2018-09-15T04:30:25.817Z,1019.6
2018-09-15T04:31:35.931Z,1019.64
2018-09-15T04:32:46.050Z,1019.64
2018-09-15T04:33:55.627Z,1019.65
2018-09-15T04:35:05.211Z,1019.67
2018-09-15T04:36:14.523Z,1019.71
2018-09-15T04:37:24.096Z,1019.69
2018-09-15T04:38:33.666Z,1019.7
2018-09-15T04:39:43.521Z,1019.69
2018-09-15T04:40:53.367Z,1019.65
2018-09-15T04:42:03.483Z,1019.74
2018-09-15T04:43:13.106Z,1019.69
2018-09-15T04:44:22.954Z,1019.76
2018-09-15T04:45:32.526Z,1019.76
2018-09-15T04:46:42.651Z,1019.76
2018-09-15T04:47:51.952Z,1019.76
2018-09-15T04:49:02.060Z,1019.74
2018-09-15T04:50:11.630Z,1019.72
2018-09-15T04:51:21.236Z,1019.68
2018-09-15T04:52:31.378Z,1019.69
2018-09-15T04:53:40.744Z,1019.71
2018-09-15T04:54:50.862Z,1019.74
2018-09-15T04:56:00.433Z,1019.77
2018-09-15T04:57:10.013Z,1019.73
2018-09-15T04:58:20.147Z,1019.77
2018-09-15T04:59:30.288Z,1019.84
2018-09-15T05:00:40.436Z,1019.84
2018-09-15T05:01:50.282Z,1019.88
2018-09-15T05:03:00.145Z,1019.85
2018-09-15T05:04:10.008Z,1019.83
2018-09-15T05:05:19.586Z,1019.81
2018-09-15T05:06:29.740Z,1019.83
2018-09-15T05:07:40.358Z,1019.87
2018-09-15T05:08:50.469Z,1019.86
2018-09-15T05:10:00.307Z,1019.89
2018-09-15T05:11:10.174Z,1019.84
2018-09-15T05:12:20.024Z,1019.88
2018-09-15T05:13:30.191Z,1019.91
2018-09-15T05:14:40.030Z,1019.91
2018-09-15T05:15:49.883Z,1019.92
2018-09-15T05:17:00.006Z,1019.9
2018-09-15T05:18:09.596Z,1019.91
2018-09-15T05:19:19.440Z,1019.88
2018-09-15T05:20:29.284Z,1019.92
2018-09-15T05:21:39.418Z,1019.92
2018-09-15T05:22:48.715Z,1019.93
2018-09-15T05:23:58.876Z,1019.96
2018-09-15T05:25:08.716Z,1019.96
2018-09-15T05:26:18.286Z,1019.97
2018-09-15T05:27:28.138Z,1020.01
2018-09-15T05:28:37.972Z,1019.98
2018-09-15T05:29:47.270Z,1020
2018-09-15T05:30:56.569Z,1019.99
2018-09-15T05:32:06.420Z,1020
2018-09-15T05:33:15.458Z,1019.98
2018-09-15T05:34:24.776Z,1019.97
2018-09-15T05:35:34.338Z,1019.99
2018-09-15T05:36:43.639Z,1019.97
2018-09-15T05:37:53.480Z,1019.99
2018-09-15T05:39:03.593Z,1020.03
2018-09-15T05:40:12.624Z,1019.98
2018-09-15T05:41:22.191Z,1020
2018-09-15T05:42:32.032Z,1020.04
2018-09-15T05:43:41.870Z,1020.05
2018-09-15T05:44:51.718Z,1020.11
2018-09-15T05:46:01.836Z,1020.06
2018-09-15T05:47:11.411Z,1020.07
2018-09-15T05:48:20.983Z,1020.12
2018-09-15T05:49:30.831Z,1020.11
2018-09-15T05:50:40.959Z,1020.13
2018-09-15T05:51:51.071Z,1020.17
2018-09-15T05:53:00.642Z,1020.17
2018-09-15T05:54:10.488Z,1020.19
2018-09-15T05:55:19.522Z,1020.27
2018-09-15T05:56:29.630Z,1020.26
2018-09-15T05:57:39.473Z,1020.31
2018-09-15T05:58:49.047Z,1020.32
2018-09-15T05:59:59.158Z,1020.35
2018-09-15T06:01:08.998Z,1020.32
2018-09-15T06:02:18.570Z,1020.39
2018-09-15T06:03:28.138Z,1020.39
2018-09-15T06:04:37.444Z,1020.44
2018-09-15T06:05:47.312Z,1020.44
2018-09-15T06:06:57.200Z,1020.45
2018-09-15T06:08:07.045Z,1020.47
2018-09-15T06:09:17.170Z,1020.45
2018-09-15T06:10:27.056Z,1020.49
2018-09-15T06:11:36.900Z,1020.48
2018-09-15T06:12:46.748Z,1020.48
2018-09-15T06:13:56.596Z,1020.48
2018-09-15T06:15:06.175Z,1020.49
2018-09-15T06:16:16.311Z,1020.48
2018-09-15T06:17:26.156Z,1020.58
2018-09-15T06:18:36.375Z,1020.5
2018-09-15T06:19:46.218Z,1020.49
2018-09-15T06:20:55.516Z,1020.46
2018-09-15T06:22:05.135Z,1020.48
2018-09-15T06:23:14.752Z,1020.53
2018-09-15T06:24:24.133Z,1020.53
2018-09-15T06:25:33.446Z,1020.52
2018-09-15T06:26:43.776Z,1020.53
2018-09-15T06:27:53.621Z,1020.53
2018-09-15T06:29:03.742Z,1020.54
2018-09-15T06:30:13.637Z,1020.52
2018-09-15T06:31:23.233Z,1020.48
2018-09-15T06:32:33.074Z,1020.48
2018-09-15T06:33:42.384Z,1020.5
2018-09-15T06:34:51.685Z,1020.46
2018-09-15T06:36:01.264Z,1020.52
2018-09-15T06:37:11.110Z,1020.5
2018-09-15T06:38:20.998Z,1020.51
2018-09-15T06:39:31.122Z,1020.55
2018-09-15T06:40:40.968Z,1020.54
2018-09-15T06:41:50.820Z,1020.57
2018-09-15T06:43:00.400Z,1020.56
2018-09-15T06:44:10.517Z,1020.53
2018-09-15T06:45:20.403Z,1020.59
2018-09-15T06:46:30.217Z,1020.58
2018-09-15T06:47:39.792Z,1020.62
2018-09-15T06:48:49.778Z,1020.63
2018-09-15T06:49:59.375Z,1020.63
2018-09-15T06:51:09.201Z,1020.65
2018-09-15T06:52:18.867Z,1020.7
2018-09-15T06:53:28.439Z,1020.68
2018-09-15T06:54:38.041Z,1020.68
2018-09-15T06:55:48.154Z,1020.69
2018-09-15T06:56:58.000Z,1020.76
2018-09-15T06:58:07.318Z,1020.76
2018-09-15T06:59:16.894Z,1020.77
2018-09-15T07:00:26.733Z,1020.81
2018-09-15T07:01:36.307Z,1020.84
2018-09-15T07:02:46.155Z,1020.8
2018-09-15T07:03:56.279Z,1020.82
2018-09-15T07:05:05.858Z,1020.88
2018-09-15T07:06:15.437Z,1020.82
2018-09-15T07:07:25.010Z,1020.88
2018-09-15T07:08:34.307Z,1020.82
2018-09-15T07:09:43.878Z,1020.84
2018-09-15T07:10:53.768Z,1020.91
2018-09-15T07:12:03.603Z,1020.92
2018-09-15T07:13:13.190Z,1020.96
2018-09-15T07:14:23.300Z,1020.98
2018-09-15T07:15:32.610Z,1020.97
2018-09-15T07:16:42.448Z,1020.93
2018-09-15T07:17:51.801Z,1020.98
2018-09-15T07:19:01.653Z,1020.96
2018-09-15T07:20:11.281Z,1021.01
2018-09-15T07:21:20.662Z,1021.03
2018-09-15T07:22:29.964Z,1021.08
2018-09-15T07:23:39.265Z,1021.07
2018-09-15T07:24:49.373Z,1021.1
2018-09-15T07:25:59.003Z,1021.07
2018-09-15T07:27:08.989Z,1021.11
2018-09-15T07:28:18.574Z,1021.18
2018-09-15T07:29:27.602Z,1021.16
2018-09-15T07:30:37.417Z,1021.25
2018-09-15T07:31:47.321Z,1021.23
2018-09-15T07:32:57.749Z,1021.25
2018-09-15T07:34:07.350Z,1021.26
2018-09-15T07:35:16.954Z,1021.31
2018-09-15T07:36:26.805Z,1021.34
2018-09-15T07:37:36.996Z,1021.32
2018-09-15T07:38:47.314Z,1021.39
2018-09-15T07:39:57.211Z,1021.33
2018-09-15T07:41:06.784Z,1021.41
2018-09-15T07:42:16.905Z,1021.35
2018-09-15T07:43:26.480Z,1021.34
2018-09-15T07:44:36.373Z,1021.33
2018-09-15T07:45:46.455Z,1021.36
2018-09-15T07:46:55.755Z,1021.34
2018-09-15T07:48:05.336Z,1021.4
2018-09-15T07:49:14.911Z,1021.34
2018-09-15T07:50:24.213Z,1021.39
2018-09-15T07:51:34.096Z,1021.4
2018-09-15T07:52:44.374Z,1021.41
2018-09-15T07:53:53.135Z,1021.42
2018-09-15T07:55:03.302Z,1021.46
2018-09-15T07:56:13.430Z,1021.51
2018-09-15T07:57:23.348Z,1021.46
2018-09-15T07:58:34.055Z,1021.5
2018-09-15T07:59:43.912Z,1021.5
2018-09-15T08:00:54.033Z,1021.48
2018-09-15T08:02:03.660Z,1021.46
2018-09-15T08:03:13.695Z,1021.53
2018-09-15T08:04:23.267Z,1021.52
2018-09-15T08:05:32.831Z,1021.55
2018-09-15T08:06:42.672Z,1021.57
2018-09-15T08:07:52.516Z,1021.49
2018-09-15T08:09:02.359Z,1021.57
2018-09-15T08:10:11.664Z,1021.52
2018-09-15T08:11:20.709Z,1021.52
2018-09-15T08:12:30.551Z,1021.56
2018-09-15T08:13:40.396Z,1021.51
2018-09-15T08:14:50.517Z,1021.57
2018-09-15T08:16:00.099Z,1021.57
2018-09-15T08:17:09.403Z,1021.62
2018-09-15T08:18:18.979Z,1021.62
2018-09-15T08:19:28.290Z,1021.59
2018-09-15T08:20:38.496Z,1021.61
2018-09-15T08:21:48.638Z,1021.67
2018-09-15T08:22:58.488Z,1021.7
2018-09-15T08:24:08.335Z,1021.65
2018-09-15T08:25:18.186Z,1021.7
2018-09-15T08:26:28.082Z,1021.7
2018-09-15T08:27:38.639Z,1021.78
2018-09-15T08:28:48.882Z,1021.74
2018-09-15T08:29:58.456Z,1021.77
2018-09-15T08:31:08.298Z,1021.81
2018-09-15T08:32:18.137Z,1021.75
2018-09-15T08:33:28.006Z,1021.81
2018-09-15T08:34:37.585Z,1021.84
2018-09-15T08:35:47.159Z,1021.82
2018-09-15T08:36:57.274Z,1021.85
2018-09-15T08:38:07.153Z,1021.85
2018-09-15T08:39:16.817Z,1021.91
2018-09-15T08:40:26.662Z,1021.84
2018-09-15T08:41:36.241Z,1021.88
2018-09-15T08:42:46.339Z,1021.91
2018-09-15T08:43:55.914Z,1021.88
2018-09-15T08:45:05.224Z,1021.87
2018-09-15T08:46:15.066Z,1021.92
2018-09-15T08:47:24.422Z,1021.93
2018-09-15T08:48:34.740Z,1021.93
2018-09-15T08:49:44.319Z,1021.97
2018-09-15T08:50:53.623Z,1021.99
2018-09-15T08:52:02.933Z,1022.03
2018-09-15T08:53:12.290Z,1021.98
2018-09-15T08:54:22.138Z,1021.99
2018-09-15T08:55:31.990Z,1022.01
2018-09-15T08:56:41.832Z,1022.08
2018-09-15T08:57:51.673Z,1022.07
2018-09-15T08:59:01.785Z,1022.08
2018-09-15T09:00:11.088Z,1022.06
2018-09-15T09:01:20.121Z,1022.07
2018-09-15T09:02:29.422Z,1022.1
2018-09-15T09:03:39.610Z,1022.08
2018-09-15T09:04:49.874Z,1022.13
2018-09-15T09:05:59.477Z,1022.11
2018-09-15T09:07:08.813Z,1022.09
2018-09-15T09:08:18.938Z,1022.1
2018-09-15T09:09:28.243Z,1022.09
2018-09-15T09:10:37.817Z,1022.1
2018-09-15T09:11:47.391Z,1022.16
2018-09-15T09:12:56.959Z,1022.09
2018-09-15T09:14:06.539Z,1022.1
2018-09-15T09:15:16.649Z,1022.13
2018-09-15T09:16:26.538Z,1022.06
2018-09-15T09:17:35.576Z,1022.06
2018-09-15T09:18:45.687Z,1022.11
2018-09-15T09:19:55.312Z,1022.12
2018-09-15T09:21:05.609Z,1022.12
2018-09-15T09:22:14.909Z,1022.15
2018-09-15T09:23:25.027Z,1022.15
2018-09-15T09:24:34.606Z,1022.16
2018-09-15T09:25:43.981Z,1022.12
2018-09-15T09:26:54.054Z,1022.09
2018-09-15T09:28:03.897Z,1022.11
2018-09-15T09:29:14.011Z,1022.13
2018-09-15T09:30:23.581Z,1022.13
2018-09-15T09:31:33.481Z,1022.21
2018-09-15T09:32:43.327Z,1022.25
2018-09-15T09:33:53.180Z,1022.27
2018-09-15T09:35:02.753Z,1022.26
2018-09-15T09:36:12.335Z,1022.27
2018-09-15T09:37:22.178Z,1022.27
2018-09-15T09:38:31.223Z,1022.27
2018-09-15T09:39:41.066Z,1022.22
2018-09-15T09:40:51.182Z,1022.23
2018-09-15T09:42:01.042Z,1022.22
2018-09-15T09:43:10.885Z,1022.23
2018-09-15T09:44:20.186Z,1022.23
2018-09-15T09:45:30.037Z,1022.19
2018-09-15T09:46:39.604Z,1022.31
2018-09-15T09:47:49.202Z,1022.2
2018-09-15T09:48:59.774Z,1022.32
2018-09-15T09:50:09.358Z,1022.29
2018-09-15T09:51:18.937Z,1022.26
2018-09-15T09:52:28.513Z,1022.28
2018-09-15T09:53:38.349Z,1022.29
2018-09-15T09:54:48.185Z,1022.27
2018-09-15T09:55:57.794Z,1022.23
2018-09-15T09:57:07.965Z,1022.2
2018-09-15T09:58:17.541Z,1022.21
2018-09-15T09:59:27.653Z,1022.28
2018-09-15T10:00:37.785Z,1022.29
2018-09-15T10:01:47.359Z,1022.32
2018-09-15T10:02:56.939Z,1022.33
2018-09-15T10:04:06.513Z,1022.26
2018-09-15T10:05:15.821Z,1022.29
2018-09-15T10:06:25.695Z,1022.31
2018-09-15T10:07:35.269Z,1022.32
2018-09-15T10:08:45.518Z,1022.34
2018-09-15T10:09:55.101Z,1022.34
2018-09-15T10:11:05.274Z,1022.33
2018-09-15T10:12:14.848Z,1022.24
2018-09-15T10:13:24.712Z,1022.27
2018-09-15T10:14:34.017Z,1022.3
2018-09-15T10:15:43.916Z,1022.29
2018-09-15T10:16:53.995Z,1022.29
2018-09-15T10:18:03.872Z,1022.23
2018-09-15T10:19:13.175Z,1022.26
2018-09-15T10:20:22.745Z,1022.25
2018-09-15T10:21:32.416Z,1022.31
2018-09-15T10:22:42.338Z,1022.33
2018-09-15T10:23:51.917Z,1022.38
2018-09-15T10:25:02.014Z,1022.39
2018-09-15T10:26:11.857Z,1022.36
2018-09-15T10:27:20.893Z,1022.35
2018-09-15T10:28:30.749Z,1022.39
2018-09-15T10:29:40.321Z,1022.41
2018-09-15T10:30:50.645Z,1022.45
2018-09-15T10:31:59.979Z,1022.41
2018-09-15T10:33:10.127Z,1022.34
2018-09-15T10:34:19.985Z,1022.34
2018-09-15T10:35:29.296Z,1022.33
2018-09-15T10:36:38.892Z,1022.37
2018-09-15T10:37:48.790Z,1022.38
2018-09-15T10:38:58.357Z,1022.35
2018-09-15T10:40:07.662Z,1022.34
2018-09-15T10:41:17.262Z,1022.4
2018-09-15T10:42:27.379Z,1022.42
2018-09-15T10:43:37.275Z,1022.49
2018-09-15T10:44:47.120Z,1022.46
2018-09-15T10:45:56.985Z,1022.46
2018-09-15T10:47:07.526Z,1022.49
2018-09-15T10:48:17.641Z,1022.57
2018-09-15T10:49:27.763Z,1022.52
2018-09-15T10:50:37.343Z,1022.53
2018-09-15T10:51:47.194Z,1022.47
2018-09-15T10:52:56.528Z,1022.52
2018-09-15T10:54:06.096Z,1022.49
2018-09-15T10:55:15.709Z,1022.49
2018-09-15T10:56:25.013Z,1022.46
2018-09-15T10:57:34.319Z,1022.47
2018-09-15T10:58:44.166Z,1022.47
2018-09-15T10:59:53.840Z,1022.38
2018-09-15T11:01:04.002Z,1022.41
2018-09-15T11:02:13.854Z,1022.37
2018-09-15T11:03:23.429Z,1022.44
2018-09-15T11:04:32.735Z,1022.43
2018-09-15T11:05:42.635Z,1022.42
2018-09-15T11:06:52.579Z,1022.45
2018-09-15T11:08:03.175Z,1022.39
2018-09-15T11:09:13.299Z,1022.42
2018-09-15T11:10:23.142Z,1022.41
2018-09-15T11:11:33.266Z,1022.35
2018-09-15T11:12:43.152Z,1022.35
2018-09-15T11:13:53.030Z,1022.36
2018-09-15T11:15:02.334Z,1022.36
2018-09-15T11:16:11.632Z,1022.37
2018-09-15T11:17:21.484Z,1022.4
2018-09-15T11:18:31.057Z,1022.41
2018-09-15T11:19:40.904Z,1022.41
2018-09-15T11:20:50.218Z,1022.42
2018-09-15T11:22:00.332Z,1022.36
2018-09-15T11:23:09.909Z,1022.33
2018-09-15T11:24:19.215Z,1022.49
2018-09-15T11:25:28.799Z,1022.37
2018-09-15T11:26:38.378Z,1022.44
2018-09-15T11:27:47.954Z,1022.44
2018-09-15T11:28:57.560Z,1022.41
2018-09-15T11:30:08.310Z,1022.43
2018-09-15T11:31:18.456Z,1022.45
2018-09-15T11:32:28.308Z,1022.43
2018-09-15T11:33:37.882Z,1022.42
2018-09-15T11:34:47.461Z,1022.41
2018-09-15T11:35:57.316Z,1022.45
2018-09-15T11:37:06.617Z,1022.54
2018-09-15T11:38:16.734Z,1022.54
2018-09-15T11:39:26.855Z,1022.53
2018-09-15T11:40:36.702Z,1022.51
2018-09-15T11:41:46.559Z,1022.56
2018-09-15T11:42:55.866Z,1022.55
2018-09-15T11:44:06.017Z,1022.5
2018-09-15T11:45:15.322Z,1022.48
2018-09-15T11:46:24.631Z,1022.54
2018-09-15T11:47:34.209Z,1022.52
2018-09-15T11:48:44.713Z,1022.54
2018-09-15T11:49:54.603Z,1022.54
2018-09-15T11:51:03.909Z,1022.5
2018-09-15T11:52:13.781Z,1022.51
2018-09-15T11:53:23.960Z,1022.47
2018-09-15T11:54:33.267Z,1022.44
2018-09-15T11:55:43.146Z,1022.46
2018-09-15T11:56:53.299Z,1022.48
2018-09-15T11:58:03.149Z,1022.48
2018-09-15T11:59:12.468Z,1022.41
2018-09-15T12:00:22.043Z,1022.49
2018-09-15T12:01:31.629Z,1022.39
2018-09-15T12:02:41.757Z,1022.36
2018-09-15T12:03:51.086Z,1022.46
2018-09-15T12:05:00.659Z,1022.43
2018-09-15T12:06:10.546Z,1022.4
2018-09-15T12:07:20.124Z,1022.42
2018-09-15T12:08:29.973Z,1022.38
2018-09-15T12:09:39.556Z,1022.42
2018-09-15T12:10:49.404Z,1022.41
2018-09-15T12:11:58.985Z,1022.34
2018-09-15T12:13:08.571Z,1022.45
2018-09-15T12:14:18.559Z,1022.44
2018-09-15T12:15:28.454Z,1022.45
2018-09-15T12:16:37.762Z,1022.35
2018-09-15T12:17:47.069Z,1022.41
2018-09-15T12:18:56.909Z,1022.42
2018-09-15T12:20:07.026Z,1022.47
2018-09-15T12:21:16.897Z,1022.42
2018-09-15T12:22:26.969Z,1022.46
2018-09-15T12:23:36.817Z,1022.47
2018-09-15T12:24:46.667Z,1022.53
2018-09-15T12:25:56.511Z,1022.52
2018-09-15T12:27:06.857Z,1022.52
2018-09-15T12:28:16.971Z,1022.57
2018-09-15T12:29:26.579Z,1022.55
2018-09-15T12:30:35.891Z,1022.53
2018-09-15T12:31:45.204Z,1022.59
2018-09-15T12:32:55.090Z,1022.52
2018-09-15T12:34:05.017Z,1022.42
2018-09-15T12:35:14.884Z,1022.46
2018-09-15T12:36:24.465Z,1022.5
2018-09-15T12:37:34.073Z,1022.55
2018-09-15T12:38:43.656Z,1022.55
2018-09-15T12:39:53.503Z,1022.56
2018-09-15T12:41:02.828Z,1022.56
2018-09-15T12:42:12.721Z,1022.61
2018-09-15T12:43:22.294Z,1022.53
2018-09-15T12:44:31.867Z,1022.52
2018-09-15T12:45:41.990Z,1022.59
2018-09-15T12:46:51.293Z,1022.54
2018-09-15T12:48:00.599Z,1022.56
2018-09-15T12:49:10.175Z,1022.63
2018-09-15T12:50:20.250Z,1022.62
2018-09-15T12:51:29.838Z,1022.66
2018-09-15T12:52:39.957Z,1022.61
2018-09-15T12:53:49.806Z,1022.6
2018-09-15T12:54:59.378Z,1022.62
2018-09-15T12:56:08.958Z,1022.6
2018-09-15T12:57:19.077Z,1022.62
2018-09-15T12:58:28.925Z,1022.63
2018-09-15T12:59:38.507Z,1022.64
2018-09-15T13:00:48.623Z,1022.62
2018-09-15T13:01:58.253Z,1022.69
2018-09-15T13:03:08.425Z,1022.68
2018-09-15T13:04:17.740Z,1022.67
2018-09-15T13:05:27.051Z,1022.72
2018-09-15T13:06:37.180Z,1022.79
2018-09-15T13:07:46.755Z,1022.74
2018-09-15T13:08:57.202Z,1022.71
2018-09-15T13:10:06.512Z,1022.77
2018-09-15T13:11:16.355Z,1022.73
2018-09-15T13:12:25.926Z,1022.81
2018-09-15T13:13:36.043Z,1022.79
2018-09-15T13:14:46.034Z,1022.78
2018-09-15T13:15:56.355Z,1022.88
2018-09-15T13:17:05.675Z,1022.79
2018-09-15T13:18:15.799Z,1022.8
2018-09-15T13:19:25.916Z,1022.85
2018-09-15T13:20:34.945Z,1022.8
2018-09-15T13:21:45.057Z,1022.79
2018-09-15T13:22:54.367Z,1022.78
2018-09-15T13:24:04.216Z,1022.7
2018-09-15T13:25:14.065Z,1022.71
2018-09-15T13:26:23.910Z,1022.68
2018-09-15T13:27:33.214Z,1022.65
2018-09-15T13:28:42.784Z,1022.65
2018-09-15T13:29:52.800Z,1022.65
2018-09-15T13:31:03.599Z,1022.69
2018-09-15T13:32:12.907Z,1022.73
2018-09-15T13:33:22.477Z,1022.73
2018-09-15T13:34:32.323Z,1022.74
2018-09-15T13:35:42.169Z,1022.76
2018-09-15T13:36:51.778Z,1022.78
2018-09-15T13:38:01.389Z,1022.82
2018-09-15T13:39:11.508Z,1022.85
2018-09-15T13:40:20.813Z,1022.97
2018-09-15T13:41:30.668Z,1022.89
2018-09-15T13:42:39.983Z,1022.93
2018-09-15T13:43:49.580Z,1022.93
2018-09-15T13:44:58.899Z,1022.89
2018-09-15T13:46:08.759Z,1022.91
2018-09-15T13:47:18.344Z,1022.96
2018-09-15T13:48:28.475Z,1022.96
2018-09-15T13:49:38.377Z,1023.02
2018-09-15T13:50:48.424Z,1022.92
2018-09-15T13:51:58.273Z,1022.92
2018-09-15T13:53:07.639Z,1022.93
2018-09-15T13:54:17.755Z,1022.92
2018-09-15T13:55:27.925Z,1022.96
2018-09-15T13:56:37.819Z,1023
2018-09-15T13:57:47.667Z,1022.95
2018-09-15T13:58:57.079Z,1022.91
2018-09-15T14:00:07.349Z,1022.89
2018-09-15T14:01:17.242Z,1022.86
2018-09-15T14:02:26.865Z,1022.77
2018-09-15T14:03:36.715Z,1022.84
2018-09-15T14:04:46.689Z,1022.83
2018-09-15T14:05:57.049Z,1022.77
2018-09-15T14:07:06.355Z,1022.82